METAR Data
IDs: Format: Raw Decoded Include TAF

Data at: 0111 UTC 06 Dec 2019

KBVY 060053Z 28009KT 10SM FEW050 BKN070 01/M08 A2980 RMK AO2 SLP090 T00111078
KBVY 052353Z 26010KT 10SM OVC070 02/M06 A2978 RMK AO2 SLP082 T00221061 10067 20022 51039
KBVY 052253Z 28007KT 10SM OVC070 03/M06 A2975 RMK AO2 SLP072 T00281056
KBVY 052153Z 28008G16KT 10SM SCT044 OVC065 03/M04 A2972 RMK AO2 SLP060 T00331039
KBVY 052053Z 27007KT 10SM OVC060 04/M03 A2967 RMK AO2 SLP043 T00441033 53027
KBVY 051953Z 27007KT 10SM OVC055 05/M03 A2964 RMK AO2 SLP033 T00501033
KBVY 051853Z 29011G19KT 10SM OVC049 06/M03 A2961 RMK AO2 SLP023 T00561033
KBVY 051753Z 29010G20KT 10SM SCT038 06/M03 A2959 RMK AO2 SLP015 T00611028 10061 21011 53003
KBVY 051653Z 29010KT 10SM CLR 06/M02 A2958 RMK AO2 SLP012 T00561017
KBVY 051553Z 28007KT 10SM CLR 04/M02 A2957 RMK AO2 SLP010 T00441017
KBVY 051453Z 27008KT 10SM CLR 03/M02 A2958 RMK AO2 SLP013 T00281022 51017
KBVY 051353Z 26006KT 10SM CLR 01/M03 A2957 RMK AO2 SLP011 T00111028
KBVY 051253Z 27004KT 10SM CLR M01/M03 A2955 RMK AO2 SLP002 T10061028
KBVY 051153Z 27004KT 10SM CLR M01/M03 A2953 RMK AO2 SLP996 T10061033 10011 21017 53020
KBVY 051053Z AUTO 26005KT 10SM CLR M01/M03 A2951 RMK AO2 SLP990 T10061033
KBVY 050953Z AUTO 26006KT 10SM CLR M01/M03 A2948 RMK AO2 SLP981 T10061028
KBVY 050853Z AUTO 28004KT 10SM CLR 00/M03 A2947 RMK AO2 SLP976 T00001028 51005
KBVY 050753Z AUTO 27003KT 10SM CLR M01/M03 A2946 RMK AO2 SLP974 T10061033
KBVY 050653Z AUTO 28005KT 10SM SCT120 01/M03 A2946 RMK AO2 SLP974 T00061028
KBVY 050553Z AUTO 27004KT 10SM FEW080 OVC100 01/M03 A2945 RMK AO2 SLP971 T00111028 10022 20006 56003
KBVY 050453Z AUTO 26004KT 10SM FEW110 01/M03 A2945 RMK AO2 SLP971 T00061028 400221050
KBVY 050353Z AUTO 27003KT 10SM OVC060 01/M02 A2946 RMK AO2 SLP972 T00111022
KBVY 050253Z AUTO 26004KT 10SM OVC060 02/M02 A2946 RMK AO2 SLP974 T00171022 58001
KBVY 050153Z AUTO 26005KT 10SM SCT049 OVC055 02/M02 A2946 RMK AO2 SLP974 T00171017
KBVY 050053Z 26004KT 10SM OVC049 02/M02 A2947 RMK AO2 SLP975 T00171017
KBVY 042353Z 00000KT 10SM OVC050 02/M02 A2946 RMK AO2 SLP975 T00171017 10022 20017 51004
KBVY 042253Z 00000KT 10SM OVC050 02/M02 A2946 RMK AO2 SLP975 T00171017
KBVY 042153Z 20003KT 10SM OVC050 02/M02 A2945 RMK AO2 SLP971 T00221022
KBVY 042053Z 22003KT 10SM OVC050 02/M02 A2945 RMK AO2 SLP970 T00221022 58003
KBVY 041953Z 24004KT 10SM OVC055 02/M02 A2946 RMK AO2 SLP972 T00221022
KBVY 041853Z 24008KT 10SM OVC060 02/M02 A2946 RMK AO2 SLP973 T00221022
KBVY 041753Z 26009KT 10SM OVC055 02/M03 A2946 RMK AO2 SLP973 T00221028 10022 21044 58016
KBVY 041653Z 23006KT 10SM OVC060 01/M03 A2949 RMK AO2 SLP982 T00111033
KBVY 041553Z 23007KT 10SM SCT070 SCT080 01/M05 A2950 RMK AO2 SLP986 T00061050
KBVY 041453Z 23006KT 10SM CLR M01/M06 A2951 RMK AO2 SLP989 T10061061 51003
KBVY 041353Z 24003KT 10SM CLR M02/M07 A2951 RMK AO2 SLP989 T10171072